Time;durP1;ratioP1;P1;durP2;ratioP2;P2;SDS_P1;SDS_P2;PMS_P1;PMS_P2;Temp;Humidity;BMP_temperature;BMP_pressure;BME280_temperature;BME280_humidity;BME280_pressure;Samples;Min_cycle;Max_cycle;Signal;HPM_P1;HPM_P2
2021/11/19 00:01:21;;;;;;;9.32;5.32;;;13.80;75.50;;;;;;5051596;28;20493;-79
2021/11/19 00:03:47;;;;;;;8.77;4.73;;;13.80;75.50;;;;;;5051990;28;20036;-78
2021/11/19 00:06:14;;;;;;;6.78;4.55;;;13.80;75.50;;;;;;5051300;28;20362;-78
2021/11/19 00:08:41;;;;;;;8.52;5.10;;;13.80;75.50;;;;;;5050501;28;20079;-78
2021/11/19 00:11:10;;;;;;;7.97;4.68;;;13.80;75.50;;;;;;5051514;28;20059;-78
2021/11/19 00:13:37;;;;;;;8.32;5.18;;;13.80;75.50;;;;;;5051879;28;20036;-78
2021/11/19 00:16:05;;;;;;;6.93;4.72;;;13.70;75.40;;;;;;5051580;28;20028;-78
2021/11/19 00:18:32;;;;;;;6.38;4.57;;;13.80;75.50;;;;;;5067925;28;20029;-77
2021/11/19 00:20:58;;;;;;;7.07;4.15;;;13.80;75.50;;;;;;5051844;28;20044;-78
2021/11/19 00:23:24;;;;;;;7.75;5.05;;;13.80;75.50;;;;;;5050959;28;20033;-78
2021/11/19 00:25:50;;;;;;;7.38;4.85;;;13.80;75.50;;;;;;5034717;28;20028;-79
2021/11/19 00:28:17;;;;;;;7.32;4.78;;;13.80;75.50;;;;;;5051949;28;20362;-79
2021/11/19 00:30:43;;;;;;;7.45;5.35;;;13.80;75.50;;;;;;5067803;28;20130;-78
2021/11/19 00:33:10;;;;;;;7.20;5.00;;;13.80;75.50;;;;;;5011861;28;1129149;-79
2021/11/19 00:35:38;;;;;;;7.85;4.90;;;13.80;75.60;;;;;;5035679;28;20029;-79
2021/11/19 00:38:06;;;;;;;8.50;4.97;;;13.80;75.50;;;;;;5053096;28;20462;-78
2021/11/19 00:40:48;;;;;;;7.18;4.88;;;13.80;75.50;;;;;;5051937;28;20049;-79
2021/11/19 00:43:15;;;;;;;8.80;4.88;;;13.80;75.60;;;;;;5052569;28;20037;-78
2021/11/19 00:45:42;;;;;;;7.15;5.25;;;13.80;75.50;;;;;;5035725;28;20052;-78
2021/11/19 00:48:09;;;;;;;7.60;4.90;;;13.80;75.50;;;;;;5052412;28;20096;-78
2021/11/19 00:50:39;;;;;;;6.88;4.65;;;13.80;75.50;;;;;;5051818;28;20025;-80
2021/11/19 00:53:06;;;;;;;8.10;5.45;;;13.80;75.60;;;;;;5068769;28;20033;-78
2021/11/19 00:55:32;;;;;;;8.23;5.35;;;13.80;75.50;;;;;;5053637;28;20029;-78
2021/11/19 00:57:58;;;;;;;7.28;4.97;;;13.80;75.50;;;;;;5051457;28;20112;-78
2021/11/19 01:00:29;;;;;;;8.23;5.45;;;13.80;75.50;;;;;;5068596;28;20036;-78
2021/11/19 01:02:55;;;;;;;8.45;4.93;;;13.80;75.60;;;;;;5052088;28;20389;-79
2021/11/19 01:05:22;;;;;;;7.15;5.00;;;13.80;76.10;;;;;;5051902;28;20025;-79
2021/11/19 01:07:48;;;;;;;7.88;5.20;;;13.80;75.50;;;;;;5052609;28;20036;-80
2021/11/19 01:10:25;;;;;;;7.07;5.35;;;13.80;75.60;;;;;;5035317;28;20488;-78
2021/11/19 01:12:51;;;;;;;7.70;5.32;;;13.80;75.50;;;;;;5051572;28;20032;-78
2021/11/19 01:15:30;;;;;;;7.43;5.38;;;13.80;75.50;;;;;;5068779;28;20170;-78
2021/11/19 01:18:03;;;;;;;7.38;5.07;;;13.80;75.60;;;;;;5052151;28;20377;-77
2021/11/19 01:20:50;;;;;;;8.80;5.35;;;13.80;75.60;;;;;;5054541;28;20044;-78
2021/11/19 01:23:20;;;;;;;7.80;4.90;;;13.70;75.60;;;;;;5055649;28;20064;-78
2021/11/19 01:25:57;;;;;;;7.97;5.38;;;13.80;75.50;;;;;;5055547;28;20469;-78
2021/11/19 01:28:23;;;;;;;7.82;5.28;;;13.80;75.60;;;;;;5056030;28;20507;-78
2021/11/19 01:30:57;;;;;;;7.22;5.22;;;13.70;75.50;;;;;;5055502;28;20037;-77
2021/11/19 01:33:25;;;;;;;7.40;5.43;;;13.70;75.60;;;;;;5054945;28;20409;-77
2021/11/19 01:36:21;;;;;;;7.25;5.28;;;13.70;75.50;;;;;;5054409;28;20033;-78
2021/11/19 01:39:25;;;;;;;8.35;5.80;;;13.80;75.50;;;;;;5049782;28;20033;-78
2021/11/19 01:42:05;;;;;;;8.35;5.78;;;13.80;75.60;;;;;;5055178;28;20033;-78
2021/11/19 01:44:56;;;;;;;7.72;5.28;;;13.80;75.60;;;;;;5055158;28;20086;-78
2021/11/19 01:47:24;;;;;;;6.43;4.90;;;13.70;75.60;;;;;;5054814;28;20086;-79
2021/11/19 01:49:50;;;;;;;8.55;5.93;;;13.70;75.50;;;;;;5055552;28;20044;-78
2021/11/19 01:52:31;;;;;;;7.50;5.30;;;13.70;75.60;;;;;;5054759;28;20024;-78
2021/11/19 01:55:02;;;;;;;8.35;5.88;;;13.70;75.60;;;;;;5054926;28;20033;-78
2021/11/19 01:57:42;;;;;;;8.43;5.82;;;13.80;75.60;;;;;;5055472;28;20490;-77
2021/11/19 02:00:23;;;;;;;8.23;5.75;;;13.80;75.70;;;;;;5054849;28;20178;-78
2021/11/19 02:02:53;;;;;;;7.43;5.32;;;13.70;75.60;;;;;;5054764;28;20048;-78
2021/11/19 02:05:59;;;;;;;7.30;5.53;;;13.70;75.50;;;;;;5054848;28;20028;-78
2021/11/19 02:08:29;;;;;;;7.22;5.32;;;13.80;75.70;;;;;;5054564;28;20021;-78
2021/11/19 02:11:24;;;;;;;7.85;5.57;;;13.80;75.60;;;;;;5055609;28;20063;-78
2021/11/19 02:14:08;;;;;;;7.85;5.65;;;13.70;75.70;;;;;;5067104;28;20112;-79
2021/11/19 02:16:39;;;;;;;7.60;5.50;;;13.70;75.70;;;;;;5054588;28;20428;-78
2021/11/19 02:19:15;;;;;;;7.35;5.60;;;13.70;75.60;;;;;;5054316;28;20492;-78
2021/11/19 02:22:02;;;;;;;7.88;5.85;;;13.70;75.60;;;;;;5054300;28;20033;-78
2021/11/19 02:24:31;;;;;;;8.90;6.50;;;13.70;75.70;;;;;;5037493;28;20381;-78
2021/11/19 02:27:09;;;;;;;7.63;5.90;;;13.80;75.60;;;;;;5054257;28;20539;-78
2021/11/19 02:29:40;;;;;;;8.20;6.40;;;13.70;75.60;;;;;;5070725;28;20059;-78
2021/11/19 02:32:10;;;;;;;9.18;6.28;;;13.80;75.70;;;;;;5053238;28;20025;-78
2021/11/19 02:34:46;;;;;;;7.88;5.97;;;13.70;75.60;;;;;;5054016;28;20549;-78
2021/11/19 02:37:42;;;;;;;8.82;5.85;;;13.80;76.30;;;;;;5054798;28;20037;-78
2021/11/19 02:40:11;;;;;;;;;;;13.80;75.70;;;;;;5054371;28;20124;-77
2021/11/19 02:42:44;;;;;;;7.32;5.25;;;13.80;75.60;;;;;;5054076;28;19920;-78
2021/11/19 02:45:25;;;;;;;8.00;6.07;;;13.70;75.50;;;;;;5054023;28;20483;-80
2021/11/19 02:47:54;;;;;;;7.57;5.88;;;13.70;75.70;;;;;;5054304;28;20021;-79
2021/11/19 02:50:22;;;;;;;8.52;6.10;;;13.70;75.60;;;;;;5053841;28;20032;-78
2021/11/19 02:52:51;;;;;;;8.40;6.00;;;13.70;75.70;;;;;;5053765;28;20029;-78
2021/11/19 02:55:22;;;;;;;8.40;6.10;;;13.70;75.70;;;;;;5053720;28;20025;-78
2021/11/19 02:57:50;;;;;;;8.13;6.13;;;13.80;75.80;;;;;;5053837;28;20036;-78
2021/11/19 03:00:27;;;;;;;7.90;6.10;;;13.80;75.70;;;;;;5036884;28;20029;-78
2021/11/19 03:02:53;;;;;;;9.15;6.43;;;13.80;75.70;;;;;;5054162;28;20036;-78
2021/11/19 03:05:21;;;;;;;9.05;7.22;;;13.80;75.70;;;;;;5053404;28;20036;-78
2021/11/19 03:07:47;;;;;;;8.15;6.15;;;13.80;75.70;;;;;;5053253;28;20079;-78
2021/11/19 03:10:19;;;;;;;7.82;6.00;;;13.80;75.70;;;;;;5053277;28;20063;-77
2021/11/19 03:12:44;;;;;;;8.98;6.65;;;13.80;76.30;;;;;;5053069;28;20100;-78
2021/11/19 03:15:15;;;;;;;8.88;6.32;;;13.80;76.00;;;;;;5037288;28;20473;-78
2021/11/19 03:17:41;;;;;;;9.63;7.05;;;13.80;75.70;;;;;;5053473;28;20033;-78
2021/11/19 03:20:10;;;;;;;8.55;7.28;;;13.80;75.70;;;;;;5053081;28;20489;-78
2021/11/19 03:22:36;;;;;;;8.57;6.45;;;13.80;75.70;;;;;;5069388;28;20033;-78
2021/11/19 03:25:05;;;;;;;9.43;6.85;;;13.80;75.70;;;;;;5052829;28;20071;-79
2021/11/19 03:27:31;;;;;;;11.27;7.43;;;13.80;75.70;;;;;;5052694;28;20082;-78
2021/11/19 03:30:10;;;;;;;9.10;7.00;;;13.80;75.70;;;;;;5053205;28;20120;-78
2021/11/19 03:32:36;;;;;;;9.60;6.75;;;13.80;75.70;;;;;;5052830;28;20029;-78
2021/11/19 03:35:05;;;;;;;9.10;6.97;;;13.80;75.60;;;;;;5053364;28;20053;-79
2021/11/19 03:37:30;;;;;;;10.13;6.78;;;13.80;75.70;;;;;;5054084;28;20104;-77
2021/11/19 03:39:56;;;;;;;9.82;7.82;;;13.80;75.70;;;;;;5052523;28;20128;-79
2021/11/19 03:42:23;;;;;;;9.73;7.35;;;13.80;75.70;;;;;;5052082;28;20032;-78
2021/11/19 03:45:00;;;;;;;9.20;7.22;;;13.80;75.70;;;;;;5052972;28;20413;-78
2021/11/19 03:47:33;;;;;;;10.57;7.72;;;13.80;75.70;;;;;;5052886;28;20040;-78
2021/11/19 03:50:02;;;;;;;10.60;7.60;;;13.80;75.60;;;;;;5064328;28;20374;-78
2021/11/19 03:52:34;;;;;;;10.07;7.25;;;13.80;75.70;;;;;;5052504;28;20021;-77
2021/11/19 03:55:05;;;;;;;9.75;7.45;;;13.80;75.70;;;;;;5052885;28;20499;-79
2021/11/19 03:57:31;;;;;;;9.57;7.40;;;13.80;75.60;;;;;;5052162;28;20124;-78
2021/11/19 03:59:57;;;;;;;10.75;8.25;;;13.80;75.60;;;;;;5052721;28;20167;-78
2021/11/19 04:02:26;;;;;;;10.65;8.20;;;13.90;75.70;;;;;;5053317;28;20041;-78
2021/11/19 04:04:52;;;;;;;9.73;7.88;;;13.90;75.70;;;;;;5052535;28;20079;-78
2021/11/19 04:07:19;;;;;;;10.60;8.32;;;13.90;75.70;;;;;;5052540;28;20021;-78
2021/11/19 04:09:46;;;;;;;10.88;8.07;;;13.90;75.70;;;;;;5052630;28;20033;-78
2021/11/19 04:12:15;;;;;;;11.15;8.30;;;13.90;75.70;;;;;;5036660;28;20033;-78
2021/11/19 04:14:42;;;;;;;10.80;8.63;;;13.90;75.70;;;;;;5052568;28;20028;-78
2021/11/19 04:17:08;;;;;;;10.38;8.80;;;13.90;75.70;;;;;;5053478;28;20029;-79
2021/11/19 04:19:35;;;;;;;11.23;8.93;;;13.90;75.70;;;;;;5052156;28;20036;-78
2021/11/19 04:22:09;;;;;;;10.52;8.38;;;13.90;75.70;;;;;;5052182;28;20040;-79
2021/11/19 04:24:42;;;;;;;11.52;8.82;;;13.90;75.70;;;;;;5053341;28;20037;-78
2021/11/19 04:27:10;;;;;;;11.52;8.75;;;13.90;75.70;;;;;;5035845;28;20039;-78
2021/11/19 04:30:00;;;;;;;10.57;8.60;;;13.90;75.60;;;;;;5055701;28;20029;-79
2021/11/19 04:32:30;;;;;;;10.80;8.80;;;13.90;75.60;;;;;;5053084;28;20025;-78
2021/11/19 04:34:56;;;;;;;10.23;8.50;;;13.90;75.70;;;;;;5052344;28;20556;-78
2021/11/19 04:37:24;;;;;;;11.35;9.15;;;13.90;75.70;;;;;;5052985;28;20040;-78
2021/11/19 04:39:51;;;;;;;10.70;8.82;;;13.90;75.70;;;;;;5036414;28;20124;-79
2021/11/19 04:42:17;;;;;;;10.60;8.68;;;13.90;75.70;;;;;;5053069;28;20021;-78
2021/11/19 04:44:43;;;;;;;10.85;8.23;;;13.90;75.70;;;;;;5052401;28;20025;-78
2021/11/19 04:47:09;;;;;;;11.30;8.85;;;13.90;75.70;;;;;;5052772;28;20056;-78
2021/11/19 04:49:35;;;;;;;11.23;8.60;;;13.90;75.70;;;;;;5035450;28;20439;-78
2021/11/19 04:52:06;;;;;;;10.98;9.07;;;13.90;75.60;;;;;;5051956;28;20025;-77
2021/11/19 04:54:32;;;;;;;11.02;9.05;;;13.90;75.60;;;;;;5052611;28;20025;-78
2021/11/19 04:56:58;;;;;;;11.88;8.88;;;13.90;75.70;;;;;;5055705;28;20505;-78
2021/11/19 04:59:24;;;;;;;12.18;9.05;;;13.90;75.60;;;;;;5055646;28;20029;-78
2021/11/19 05:01:54;;;;;;;11.82;9.48;;;13.90;75.60;;;;;;5055790;28;20044;-78
2021/11/19 05:04:38;;;;;;;11.45;9.05;;;13.90;75.70;;;;;;5057360;28;20122;-78
2021/11/19 05:07:04;;;;;;;11.98;9.13;;;13.90;75.60;;;;;;5056309;28;20358;-78
2021/11/19 05:09:31;;;;;;;11.32;9.25;;;13.90;75.60;;;;;;5038897;28;20511;-78
2021/11/19 05:12:12;;;;;;;10.90;9.13;;;13.90;75.60;;;;;;5055396;28;20549;-79
2021/11/19 05:14:40;;;;;;;13.57;9.07;;;13.90;75.70;;;;;;5055731;28;20025;-78
2021/11/19 05:17:09;;;;;;;11.32;9.02;;;13.90;75.60;;;;;;5056260;28;20056;-77
2021/11/19 05:19:35;;;;;;;11.15;8.75;;;13.90;75.70;;;;;;5054929;28;20060;-78
2021/11/19 05:22:03;;;;;;;11.63;9.07;;;13.90;75.70;;;;;;5055309;28;20110;-78
2021/11/19 05:24:30;;;;;;;11.75;9.43;;;13.90;75.70;;;;;;5055455;28;20467;-78
2021/11/19 05:26:56;;;;;;;11.55;9.32;;;13.90;75.60;;;;;;5055119;28;20057;-80
2021/11/19 05:29:22;;;;;;;12.55;9.23;;;14.00;75.70;;;;;;5054985;28;20067;-77
2021/11/19 05:31:50;;;;;;;11.52;9.40;;;13.90;75.60;;;;;;5055285;28;20029;-79
2021/11/19 05:34:19;;;;;;;12.07;9.98;;;13.90;75.60;;;;;;5054826;28;20493;-79
2021/11/19 05:36:45;;;;;;;11.80;9.48;;;14.00;75.70;;;;;;5055136;28;20533;-79
2021/11/19 05:39:12;;;;;;;11.50;9.27;;;14.00;75.70;;;;;;5054394;28;20037;-78
2021/11/19 05:41:42;;;;;;;10.55;8.52;;;13.90;75.70;;;;;;5055732;28;20025;-79
2021/11/19 05:44:08;;;;;;;11.90;8.95;;;14.00;75.70;;;;;;5055113;28;20037;-81
2021/11/19 05:46:46;;;;;;;12.70;9.27;;;14.00;75.70;;;;;;5055252;28;20021;-79
2021/11/19 05:49:16;;;;;;;11.65;9.30;;;14.00;75.60;;;;;;5055818;28;20033;-79
2021/11/19 05:51:43;;;;;;;11.40;8.93;;;14.00;75.70;;;;;;5054989;28;20060;-79
2021/11/19 05:54:12;;;;;;;11.02;9.23;;;14.00;75.70;;;;;;5055419;28;20376;-78
2021/11/19 05:56:38;;;;;;;12.43;9.30;;;14.00;75.70;;;;;;5071244;28;20036;-78
2021/11/19 05:59:04;;;;;;;11.75;9.32;;;14.00;75.70;;;;;;5054721;28;20116;-76
2021/11/19 06:01:49;;;;;;;11.07;8.68;;;14.00;75.70;;;;;;5055406;28;20535;-76
2021/11/19 06:04:15;;;;;;;12.18;9.38;;;14.00;75.60;;;;;;5037863;28;20029;-76
2021/11/19 06:06:59;;;;;;;11.30;8.90;;;14.00;75.70;;;;;;5055172;28;20025;-76
2021/11/19 06:09:47;;;;;;;11.43;9.43;;;14.00;75.60;;;;;;5055858;28;20119;-78
2021/11/19 06:12:29;;;;;;;10.80;8.82;;;14.00;75.70;;;;;;5054681;28;20025;-79
2021/11/19 06:15:00;;;;;;;10.90;8.88;;;14.00;75.70;;;;;;5055187;28;20446;-76
2021/11/19 06:17:33;;;;;;;10.98;8.77;;;14.00;75.70;;;;;;5070646;28;20539;-76
2021/11/19 06:20:06;;;;;;;10.82;8.88;;;14.00;75.70;;;;;;5054353;28;20033;-76
2021/11/19 06:22:36;;;;;;;10.43;8.40;;;14.00;75.70;;;;;;5037719;28;20029;-76
2021/11/19 06:25:06;;;;;;;11.98;9.63;;;14.00;75.70;;;;;;5054457;28;20024;-76
2021/11/19 06:27:35;;;;;;;11.10;9.20;;;14.00;75.70;;;;;;5053880;28;20060;-76
2021/11/19 06:30:06;;;;;;;11.88;8.55;;;14.00;75.70;;;;;;5054246;28;20036;-75
2021/11/19 06:32:32;;;;;;;11.52;9.40;;;14.00;75.70;;;;;;5053906;28;20071;-77
2021/11/19 06:34:59;;;;;;;11.65;9.43;;;14.00;75.70;;;;;;5054422;28;20052;-76
2021/11/19 06:37:26;;;;;;;11.65;8.98;;;14.00;75.70;;;;;;5054473;28;20342;-77
2021/11/19 06:39:57;;;;;;;11.20;9.18;;;14.00;75.70;;;;;;5053970;28;20377;-76
2021/11/19 06:42:37;;;;;;;10.77;8.85;;;14.00;75.70;;;;;;5055782;28;20064;-80
2021/11/19 06:45:21;;;;;;;10.98;8.75;;;14.00;75.70;;;;;;5054281;28;20052;-79
2021/11/19 06:47:55;;;;;;;11.32;8.98;;;14.00;75.60;;;;;;5054920;28;20536;-78
2021/11/19 06:50:44;;;;;;;11.15;9.02;;;14.00;75.60;;;;;;5054631;28;20044;-78
2021/11/19 06:53:33;;;;;;;11.90;9.65;;;14.00;75.60;;;;;;5068026;28;20167;-79
2021/11/19 06:56:31;;;;;;;11.90;8.80;;;14.00;75.70;;;;;;5059903;28;20036;-79
2021/11/19 06:59:03;;;;;;;11.27;9.43;;;14.00;75.60;;;;;;5054761;28;20090;-78
2021/11/19 07:01:29;;;;;;;11.98;8.77;;;14.00;75.70;;;;;;5036782;28;20048;-78
2021/11/19 07:03:55;;;;;;;13.38;9.52;;;14.00;75.70;;;;;;5053420;28;20060;-78
2021/11/19 07:06:22;;;;;;;11.90;8.93;;;14.00;75.70;;;;;;5054335;28;20068;-78
2021/11/19 07:08:47;;;;;;;10.85;8.82;;;14.00;75.70;;;;;;5054633;28;20025;-79
2021/11/19 07:11:17;;;;;;;10.45;8.63;;;14.00;75.70;;;;;;5052926;28;20032;-79
2021/11/19 07:13:48;;;;;;;10.85;8.60;;;14.00;75.70;;;;;;5053307;28;20029;-78
2021/11/19 07:16:17;;;;;;;10.77;8.70;;;14.00;75.70;;;;;;5053375;28;20025;-78
2021/11/19 07:18:43;;;;;;;11.40;9.05;;;14.00;75.70;;;;;;5052742;28;20043;-79
2021/11/19 07:21:10;;;;;;;10.90;8.90;;;14.00;75.70;;;;;;5053594;28;20043;-80
2021/11/19 07:23:39;;;;;;;11.75;9.45;;;14.10;75.70;;;;;;5053092;28;20025;-79
2021/11/19 07:26:05;;;;;;;10.73;8.07;;;14.00;75.70;;;;;;5053431;28;20469;-78
2021/11/19 07:28:32;;;;;;;12.15;9.35;;;14.10;75.80;;;;;;5052668;28;20033;-78
2021/11/19 07:31:35;;;;;;;10.40;8.52;;;14.10;75.70;;;;;;5051831;28;20033;-79
2021/11/19 07:34:31;;;;;;;11.05;8.82;;;14.10;75.70;;;;;;5039269;28;20076;-80
2021/11/19 07:37:31;;;;;;;11.00;9.10;;;14.10;75.60;;;;;;5052723;28;20033;-79
2021/11/19 07:40:34;;;;;;;11.13;8.95;;;14.10;76.30;;;;;;5059799;28;20130;-79
2021/11/19 07:43:32;;;;;;;10.63;8.68;;;14.00;75.60;;;;;;5052086;28;20037;-80
2021/11/19 07:46:14;;;;;;;11.52;9.35;;;14.00;75.60;;;;;;5052799;28;20028;-79
2021/11/19 07:48:45;;;;;;;10.18;8.32;;;14.00;75.70;;;;;;5053439;28;20032;-79
2021/11/19 07:51:19;;;;;;;11.13;8.65;;;14.10;75.70;;;;;;5052687;28;20082;-80
2021/11/19 07:53:47;;;;;;;10.32;8.07;;;14.10;75.80;;;;;;5052523;28;20044;-80
2021/11/19 07:56:16;;;;;;;11.30;8.77;;;14.10;75.70;;;;;;5052589;28;20465;-80
2021/11/19 07:58:42;;;;;;;11.18;9.27;;;14.00;75.70;;;;;;5053161;28;20083;-79
2021/11/19 08:01:08;;;;;;;10.38;8.30;;;14.00;75.70;;;;;;5036106;28;20386;-79
2021/11/19 08:03:35;;;;;;;10.70;8.90;;;14.10;75.70;;;;;;5052475;28;20032;-79
2021/11/19 08:06:05;;;;;;;10.82;8.68;;;14.10;75.70;;;;;;5036109;28;20035;-80
2021/11/19 08:08:34;;;;;;;11.77;9.02;;;14.10;75.70;;;;;;5052801;28;20018;-80
2021/11/19 08:11:15;;;;;;;12.02;9.07;;;14.10;75.70;;;;;;5052525;28;20477;-79
2021/11/19 08:13:42;;;;;;;11.32;9.02;;;14.10;75.70;;;;;;5052309;28;20029;-80
2021/11/19 08:16:08;;;;;;;11.68;8.48;;;14.10;75.70;;;;;;5052476;28;20048;-79
2021/11/19 08:18:56;;;;;;;10.98;8.13;;;14.10;75.70;;;;;;5052479;28;20029;-79
2021/11/19 08:21:23;;;;;;;11.57;8.90;;;14.10;75.70;;;;;;5053452;28;20116;-80
2021/11/19 08:23:54;;;;;;;10.50;8.65;;;14.10;75.60;;;;;;5051891;28;20033;-79
2021/11/19 08:26:48;;;;;;;10.57;8.45;;;14.10;75.60;;;;;;5068989;28;20415;-79
2021/11/19 08:29:19;;;;;;;10.55;8.77;;;14.10;75.70;;;;;;5053175;28;20091;-79
2021/11/19 08:31:45;;;;;;;11.02;8.75;;;14.10;75.60;;;;;;5057168;28;20365;-78
2021/11/19 08:34:11;;;;;;;11.10;8.57;;;14.10;75.60;;;;;;5056138;28;20079;-80
2021/11/19 08:36:37;;;;;;;10.52;8.68;;;14.10;75.70;;;;;;5056106;28;20055;-80
2021/11/19 08:39:06;;;;;;;10.55;8.65;;;14.10;75.70;;;;;;5040244;28;20080;-79
2021/11/19 08:41:32;;;;;;;10.05;8.18;;;14.10;75.70;;;;;;5055982;28;20029;-79
2021/11/19 08:43:59;;;;;;;9.80;8.18;;;14.20;75.70;;;;;;5056393;28;20025;-79
2021/11/19 08:46:35;;;;;;;10.50;7.88;;;14.20;75.70;;;;;;5056014;28;20517;-79
2021/11/19 08:49:04;;;;;;;10.00;8.13;;;14.20;75.80;;;;;;5073375;28;20107;-79
2021/11/19 08:51:31;;;;;;;11.15;8.35;;;14.20;75.70;;;;;;5057223;28;20055;-79
2021/11/19 08:54:00;;;;;;;10.82;8.80;;;14.20;75.70;;;;;;5055851;28;20469;-79
2021/11/19 08:56:27;;;;;;;10.60;8.48;;;14.20;75.70;;;;;;5055750;28;20425;-79
2021/11/19 08:58:53;;;;;;;10.77;8.18;;;14.20;75.70;;;;;;5056397;28;20025;-79
2021/11/19 09:01:22;;;;;;;9.48;7.63;;;14.20;75.70;;;;;;5055797;28;20022;-79
2021/11/19 09:03:48;;;;;;;10.15;8.43;;;14.20;75.70;;;;;;5056029;28;20033;-80
2021/11/19 09:06:15;;;;;;;10.52;8.45;;;14.20;75.70;;;;;;5055625;28;20025;-80
2021/11/19 09:08:43;;;;;;;10.82;8.15;;;14.20;75.70;;;;;;5071961;28;20029;-79
2021/11/19 09:11:11;;;;;;;10.50;7.97;;;14.20;75.70;;;;;;5055633;28;20086;-80
2021/11/19 09:13:39;;;;;;;10.00;7.90;;;14.20;75.70;;;;;;5056204;28;20033;-79
2021/11/19 09:16:08;;;;;;;10.30;8.13;;;14.20;75.70;;;;;;5056471;28;20104;-79
2021/11/19 09:18:47;;;;;;;10.27;7.97;;;14.30;75.70;;;;;;5055562;28;20097;-79
2021/11/19 09:21:19;;;;;;;10.00;7.43;;;14.20;75.70;;;;;;5056881;28;20087;-79
2021/11/19 09:23:51;;;;;;;10.90;8.35;;;14.30;75.70;;;;;;5057389;28;20408;-79
2021/11/19 09:26:20;;;;;;;10.95;8.10;;;14.30;75.70;;;;;;5071959;28;20568;-80
2021/11/19 09:28:53;;;;;;;9.60;7.63;;;14.30;75.70;;;;;;5055615;28;20548;-79
2021/11/19 09:31:20;;;;;;;11.18;8.15;;;14.30;75.80;;;;;;5056574;28;20033;-79
2021/11/19 09:33:48;;;;;;;9.70;7.80;;;14.30;75.70;;;;;;5056430;28;20056;-79
2021/11/19 09:36:16;;;;;;;10.40;8.23;;;14.30;75.70;;;;;;5071824;28;20103;-80
2021/11/19 09:38:42;;;;;;;9.60;7.10;;;14.30;75.70;;;;;;5055238;28;20469;-80
2021/11/19 09:41:22;;;;;;;11.07;8.10;;;14.30;75.70;;;;;;5054544;28;20044;-79
2021/11/19 09:44:10;;;;;;;9.02;7.43;;;14.30;75.70;;;;;;5055286;28;20025;-80
2021/11/19 09:47:11;;;;;;;8.95;6.97;;;14.40;75.70;;;;;;5055222;28;20466;-79
2021/11/19 09:49:37;;;;;;;9.10;7.55;;;14.30;75.80;;;;;;5055662;28;20086;-80
2021/11/19 09:52:58;;;;;;;7.85;6.78;;;14.30;75.60;;;;;;5055354;28;20411;-78
2021/11/19 09:56:01;;;;;;;8.27;6.72;;;14.40;75.90;;;;;;5075824;28;20078;-79
2021/11/19 09:59:17;;;;;;;8.60;7.43;;;14.40;75.80;;;;;;5057302;28;20052;-79
2021/11/19 10:01:55;;;;;;;8.80;6.65;;;14.40;75.90;;;;;;5029536;28;20052;-79
2021/11/19 10:04:58;;;;;;;9.15;6.85;;;14.40;75.70;;;;;;5056527;28;20025;-79
2021/11/19 10:08:06;;;;;;;9.30;7.20;;;14.40;75.90;;;;;;5054781;28;20416;-80
2021/11/19 10:10:47;;;;;;;8.18;6.60;;;14.40;75.90;;;;;;5070977;28;20063;-79
2021/11/19 10:13:23;;;;;;;8.55;6.82;;;14.40;75.70;;;;;;5054701;28;20025;-79
2021/11/19 10:16:27;;;;;;;8.13;6.57;;;14.50;76.50;;;;;;5054054;28;20029;-79
2021/11/19 10:19:16;;;;;;;8.23;6.47;;;14.40;75.90;;;;;;5053381;28;20499;-79
2021/11/19 10:21:54;;;;;;;8.20;6.63;;;14.50;75.90;;;;;;5054472;28;20037;-79
2021/11/19 10:24:49;;;;;;;9.65;7.00;;;14.50;75.90;;;;;;5055753;28;20059;-79
2021/11/19 10:27:23;;;;;;;8.35;6.00;;;14.50;75.90;;;;;;5054324;28;20036;-79
2021/11/19 10:29:58;;;;;;;7.85;6.18;;;14.50;75.80;;;;;;5054337;28;20068;-79
2021/11/19 10:32:27;;;;;;;6.95;5.70;;;14.50;75.80;;;;;;5056070;28;20525;-79
2021/11/19 10:35:25;;;;;;;8.25;6.60;;;14.50;75.80;;;;;;5055493;28;20041;-80
2021/11/19 10:38:06;;;;;;;8.07;6.63;;;14.60;75.90;;;;;;5053729;28;20108;-79
2021/11/19 10:40:53;;;;;;;8.00;6.22;;;14.60;75.80;;;;;;5053599;28;20474;-79
2021/11/19 10:43:50;;;;;;;7.93;6.53;;;14.60;75.90;;;;;;5053611;28;20470;-78
2021/11/19 10:46:34;;;;;;;7.70;5.80;;;14.60;75.90;;;;;;5053648;28;20029;-79
2021/11/19 10:49:21;;;;;;;7.68;6.03;;;14.60;75.90;;;;;;5054657;28;20032;-79
2021/11/19 10:52:10;;;;;;;6.88;5.43;;;14.70;75.90;;;;;;5054303;28;20017;-78
2021/11/19 10:55:14;;;;;;;9.88;6.07;;;14.60;75.90;;;;;;5054394;28;20029;-79
2021/11/19 10:58:07;;;;;;;6.93;5.70;;;14.70;75.90;;;;;;5053826;28;20068;-79
2021/11/19 11:00:55;;;;;;;7.55;5.80;;;14.70;75.90;;;;;;5054318;28;20039;-80
2021/11/19 11:03:24;;;;;;;7.15;6.13;;;14.70;75.80;;;;;;5053770;28;20541;-80
2021/11/19 11:06:02;;;;;;;7.15;5.63;;;14.70;75.80;;;;;;5053220;28;20025;-80
2021/11/19 11:08:37;;;;;;;8.10;5.85;;;14.80;75.90;;;;;;5069713;28;20124;-79
2021/11/19 11:11:09;;;;;;;;;;;14.80;75.90;;;;;;5053696;28;20024;-78
2021/11/19 11:13:56;;;;;;;6.60;4.63;;;14.80;75.70;;;;;;5070851;28;19916;-79
2021/11/19 11:16:25;;;;;;;6.65;4.95;;;14.80;75.80;;;;;;5053109;28;20075;-78
2021/11/19 11:18:50;;;;;;;6.65;5.15;;;14.90;75.80;;;;;;5054590;28;20032;-79
2021/11/19 11:21:23;;;;;;;7.72;5.32;;;14.90;75.80;;;;;;5053092;28;20389;-79
2021/11/19 11:23:56;;;;;;;7.75;5.35;;;14.90;75.80;;;;;;5053640;28;20378;-79
2021/11/19 11:26:37;;;;;;;6.32;5.18;;;14.90;75.80;;;;;;5053334;28;20025;-79
2021/11/19 11:29:08;;;;;;;6.22;5.20;;;15.00;75.90;;;;;;5052951;28;20025;-79
2021/11/19 11:32:10;;;;;;;7.15;5.15;;;14.90;75.80;;;;;;5054181;28;20051;-79
2021/11/19 11:34:45;;;;;;;7.03;4.88;;;15.00;75.80;;;;;;5053752;28;20464;-79
2021/11/19 11:37:16;;;;;;;6.95;5.35;;;15.00;75.70;;;;;;5052840;28;20041;-79
2021/11/19 11:40:05;;;;;;;5.82;4.43;;;15.00;75.70;;;;;;5052815;28;20120;-80
2021/11/19 11:42:39;;;;;;;5.82;4.40;;;15.00;75.80;;;;;;5069556;28;20068;-79
2021/11/19 11:45:30;;;;;;;7.90;5.30;;;15.10;75.70;;;;;;5052709;28;20029;-78
2021/11/19 11:48:23;;;;;;;5.78;4.70;;;15.10;75.90;;;;;;5052631;28;20029;-78
2021/11/19 11:50:58;;;;;;;6.63;4.53;;;15.10;75.80;;;;;;5061052;28;20041;-79
2021/11/19 11:53:30;;;;;;;5.82;4.53;;;15.10;75.70;;;;;;5052641;28;20029;-78
2021/11/19 11:56:18;;;;;;;5.30;4.30;;;15.10;75.70;;;;;;5052593;28;20025;-79
2021/11/19 11:59:05;;;;;;;5.72;4.32;;;15.10;75.80;;;;;;5069050;28;20130;-79
2021/11/19 12:02:00;;;;;;;6.18;4.60;;;15.20;75.70;;;;;;5052748;28;20039;-79
2021/11/19 12:04:54;;;;;;;5.32;4.28;;;15.10;75.70;;;;;;5052623;28;20040;-80
2021/11/19 12:07:30;;;;;;;5.82;4.10;;;15.20;75.70;;;;;;5053285;28;20438;-78
2021/11/19 12:10:26;;;;;;;5.40;4.30;;;15.20;75.60;;;;;;5052563;28;20469;-78
2021/11/19 12:13:20;;;;;;;5.63;4.20;;;15.20;75.80;;;;;;5052681;28;20025;-79
2021/11/19 12:16:06;;;;;;;5.75;4.55;;;15.20;76.40;;;;;;5052695;28;20449;-79
2021/11/19 12:18:54;;;;;;;5.35;4.28;;;15.20;75.70;;;;;;5052574;28;20032;-79
2021/11/19 12:21:43;;;;;;;5.53;3.92;;;15.30;75.70;;;;;;5052444;28;20041;-80
2021/11/19 12:24:27;;;;;;;5.40;4.28;;;15.30;75.60;;;;;;5052153;28;20028;-79
2021/11/19 12:27:18;;;;;;;4.95;4.03;;;15.30;75.70;;;;;;5053687;28;20063;-78
2021/11/19 12:29:52;;;;;;;4.90;3.67;;;15.30;75.70;;;;;;5052165;28;20033;-80
2021/11/19 12:32:33;;;;;;;5.43;4.17;;;15.30;75.60;;;;;;5052538;28;20036;-79
2021/11/19 12:35:15;;;;;;;5.35;3.92;;;15.30;75.60;;;;;;5057346;28;20052;-79
2021/11/19 12:38:11;;;;;;;4.85;3.80;;;15.30;75.60;;;;;;5056559;28;20132;-78
2021/11/19 12:40:45;;;;;;;5.50;3.83;;;15.40;75.70;;;;;;5070391;28;20036;-79
2021/11/19 12:43:24;;;;;;;5.18;3.58;;;15.40;75.50;;;;;;5055647;28;20036;-79
2021/11/19 12:46:11;;;;;;;4.85;3.65;;;15.40;75.60;;;;;;5054131;28;20025;-79
2021/11/19 12:49:14;;;;;;;4.43;3.65;;;15.40;75.60;;;;;;5052135;28;20037;-79
2021/11/19 12:52:02;;;;;;;4.38;3.50;;;15.40;75.60;;;;;;5052201;28;20392;-79
2021/11/19 12:54:57;;;;;;;4.43;3.38;;;15.40;75.60;;;;;;5051822;28;20505;-80
2021/11/19 12:58:07;;;;;;;4.68;3.63;;;15.40;75.60;;;;;;4984532;28;20041;-79
2021/11/19 13:00:35;;;;;;;5.55;3.70;;;15.50;75.60;;;;;;5042386;28;20064;-79
2021/11/19 13:03:27;;;;;;;4.40;3.22;;;15.50;75.50;;;;;;5051773;28;20021;-79
2021/11/19 13:06:26;;;;;;;4.80;3.55;;;15.50;75.60;;;;;;5052116;28;20377;-79
2021/11/19 13:09:12;;;;;;;4.22;3.30;;;15.50;75.50;;;;;;5052151;28;20037;-80
2021/11/19 13:11:56;;;;;;;3.97;3.13;;;15.50;75.50;;;;;;5052869;28;20029;-79
2021/11/19 13:14:30;;;;;;;4.75;3.47;;;15.50;75.60;;;;;;5053223;28;20021;-79
2021/11/19 13:17:02;;;;;;;5.85;3.35;;;15.50;75.40;;;;;;5054441;28;20108;-79
2021/11/19 13:19:32;;;;;;;5.32;3.67;;;15.50;75.40;;;;;;5055155;28;20083;-79
2021/11/19 13:22:10;;;;;;;4.53;3.28;;;15.50;75.40;;;;;;5056099;28;20033;-79
2021/11/19 13:24:55;;;;;;;4.25;3.22;;;15.60;75.50;;;;;;5055433;28;20095;-79